sensor_id;sensor_type;location;lat;lon;timestamp;pressure;altitude;pressure_sealevel;temperature;humidity
37848;BME280;23688;33.130;-117.188;2023-04-19T00:02:21;99365.06;;;16.97;69.72
37848;BME280;23688;33.130;-117.188;2023-04-19T00:04:48;99353.22;;;16.67;70.80
37848;BME280;23688;33.130;-117.188;2023-04-19T00:07:14;99344.75;;;16.84;69.44
37848;BME280;23688;33.130;-117.188;2023-04-19T00:09:43;99365.00;;;16.93;73.07
37848;BME280;23688;33.130;-117.188;2023-04-19T00:12:09;99363.56;;;16.57;71.98
37848;BME280;23688;33.130;-117.188;2023-04-19T00:14:35;99381.41;;;16.24;74.55
37848;BME280;23688;33.130;-117.188;2023-04-19T00:17:02;99373.47;;;16.21;79.50
37848;BME280;23688;33.130;-117.188;2023-04-19T00:19:28;99394.78;;;16.43;78.88
37848;BME280;23688;33.130;-117.188;2023-04-19T00:21:54;99381.75;;;16.46;77.11
37848;BME280;23688;33.130;-117.188;2023-04-19T00:24:20;99368.19;;;16.17;77.53
37848;BME280;23688;33.130;-117.188;2023-04-19T00:26:47;99379.03;;;15.88;79.00
37848;BME280;23688;33.130;-117.188;2023-04-19T00:29:13;99368.81;;;15.56;79.62
37848;BME280;23688;33.130;-117.188;2023-04-19T00:31:39;99376.72;;;15.59;81.86
37848;BME280;23688;33.130;-117.188;2023-04-19T00:34:06;99380.25;;;15.61;81.79
37848;BME280;23688;33.130;-117.188;2023-04-19T00:36:32;99378.47;;;15.59;81.91
37848;BME280;23688;33.130;-117.188;2023-04-19T00:38:58;99382.16;;;15.26;83.56
37848;BME280;23688;33.130;-117.188;2023-04-19T00:41:26;99389.47;;;15.43;84.01
37848;BME280;23688;33.130;-117.188;2023-04-19T00:43:52;99388.97;;;15.18;83.00
37848;BME280;23688;33.130;-117.188;2023-04-19T00:46:19;99391.53;;;14.77;85.09
37848;BME280;23688;33.130;-117.188;2023-04-19T00:48:47;99386.53;;;14.50;86.40
37848;BME280;23688;33.130;-117.188;2023-04-19T00:51:15;99385.31;;;14.34;87.48
37848;BME280;23688;33.130;-117.188;2023-04-19T00:53:42;99387.19;;;14.06;88.56
37848;BME280;23688;33.130;-117.188;2023-04-19T00:56:09;99403.53;;;13.99;91.14
37848;BME280;23688;33.130;-117.188;2023-04-19T00:58:37;99398.63;;;14.11;92.17
37848;BME280;23688;33.130;-117.188;2023-04-19T01:01:04;99393.41;;;14.11;91.82
37848;BME280;23688;33.130;-117.188;2023-04-19T01:03:31;99378.91;;;13.88;92.92
37848;BME280;23688;33.130;-117.188;2023-04-19T01:05:57;99392.56;;;13.78;93.88
37848;BME280;23688;33.130;-117.188;2023-04-19T01:08:24;99401.41;;;13.83;93.23
37848;BME280;23688;33.130;-117.188;2023-04-19T01:10:50;99397.31;;;13.94;93.38
37848;BME280;23688;33.130;-117.188;2023-04-19T01:13:16;99414.13;;;13.72;93.90
37848;BME280;23688;33.130;-117.188;2023-04-19T01:15:43;99402.94;;;13.44;93.82
37848;BME280;23688;33.130;-117.188;2023-04-19T01:18:09;99412.19;;;13.63;94.82
37848;BME280;23688;33.130;-117.188;2023-04-19T01:20:36;99422.38;;;13.56;96.00
37848;BME280;23688;33.130;-117.188;2023-04-19T01:23:02;99416.13;;;13.49;96.96
37848;BME280;23688;33.130;-117.188;2023-04-19T01:25:28;99407.63;;;13.56;97.93
37848;BME280;23688;33.130;-117.188;2023-04-19T01:27:55;99414.59;;;13.57;98.09
37848;BME280;23688;33.130;-117.188;2023-04-19T01:30:21;99414.09;;;13.39;98.75
37848;BME280;23688;33.130;-117.188;2023-04-19T01:32:47;99408.38;;;13.23;99.55
37848;BME280;23688;33.130;-117.188;2023-04-19T01:35:13;99424.53;;;13.10;100.00
37848;BME280;23688;33.130;-117.188;2023-04-19T01:37:40;99431.47;;;13.10;100.00
37848;BME280;23688;33.130;-117.188;2023-04-19T01:40:07;99430.56;;;13.09;100.00
37848;BME280;23688;33.130;-117.188;2023-04-19T01:42:33;99425.53;;;13.15;100.00
37848;BME280;23688;33.130;-117.188;2023-04-19T01:45:02;99418.81;;;13.23;100.00
37848;BME280;23688;33.130;-117.188;2023-04-19T01:47:29;99424.56;;;13.40;100.00
37848;BME280;23688;33.130;-117.188;2023-04-19T01:49:55;99425.94;;;13.27;98.76
37848;BME280;23688;33.130;-117.188;2023-04-19T01:52:23;99414.13;;;13.40;99.44
37848;BME280;23688;33.130;-117.188;2023-04-19T01:54:50;99428.75;;;13.35;99.53
37848;BME280;23688;33.130;-117.188;2023-04-19T01:57:16;99437.91;;;13.22;99.26
37848;BME280;23688;33.130;-117.188;2023-04-19T01:59:43;99438.34;;;13.07;100.00
37848;BME280;23688;33.130;-117.188;2023-04-19T02:02:10;99419.88;;;13.00;100.00
37848;BME280;23688;33.130;-117.188;2023-04-19T02:04:36;99434.28;;;12.89;100.00
37848;BME280;23688;33.130;-117.188;2023-04-19T02:07:02;99436.59;;;12.79;100.00
37848;BME280;23688;33.130;-117.188;2023-04-19T02:09:29;99436.28;;;12.70;100.00
37848;BME280;23688;33.130;-117.188;2023-04-19T02:11:55;99440.03;;;12.78;100.00
37848;BME280;23688;33.130;-117.188;2023-04-19T02:14:21;99442.06;;;12.60;100.00
37848;BME280;23688;33.130;-117.188;2023-04-19T02:16:48;99447.50;;;12.40;100.00
37848;BME280;23688;33.130;-117.188;2023-04-19T02:19:14;99449.16;;;12.38;100.00
37848;BME280;23688;33.130;-117.188;2023-04-19T02:21:40;99452.50;;;12.34;100.00
37848;BME280;23688;33.130;-117.188;2023-04-19T02:24:07;99455.06;;;12.33;100.00
37848;BME280;23688;33.130;-117.188;2023-04-19T02:26:33;99456.56;;;12.26;100.00
37848;BME280;23688;33.130;-117.188;2023-04-19T02:28:59;99447.53;;;12.15;100.00
37848;BME280;23688;33.130;-117.188;2023-04-19T02:31:26;99460.84;;;12.24;100.00
37848;BME280;23688;33.130;-117.188;2023-04-19T02:33:52;99460.25;;;12.33;100.00
37848;BME280;23688;33.130;-117.188;2023-04-19T02:36:19;99463.66;;;12.30;100.00
37848;BME280;23688;33.130;-117.188;2023-04-19T02:38:45;99465.38;;;12.30;100.00
37848;BME280;23688;33.130;-117.188;2023-04-19T02:41:12;99474.13;;;12.32;100.00
37848;BME280;23688;33.130;-117.188;2023-04-19T02:43:38;99448.41;;;12.15;100.00
37848;BME280;23688;33.130;-117.188;2023-04-19T02:46:05;99462.28;;;12.16;100.00
37848;BME280;23688;33.130;-117.188;2023-04-19T02:48:31;99460.22;;;12.06;100.00
37848;BME280;23688;33.130;-117.188;2023-04-19T02:50:58;99480.75;;;12.24;100.00
37848;BME280;23688;33.130;-117.188;2023-04-19T02:53:27;99475.97;;;12.36;100.00
37848;BME280;23688;33.130;-117.188;2023-04-19T02:55:53;99474.16;;;12.33;100.00
37848;BME280;23688;33.130;-117.188;2023-04-19T02:58:20;99477.75;;;12.37;100.00
37848;BME280;23688;33.130;-117.188;2023-04-19T03:00:46;99486.38;;;12.36;100.00
37848;BME280;23688;33.130;-117.188;2023-04-19T03:03:12;99479.78;;;12.20;100.00
37848;BME280;23688;33.130;-117.188;2023-04-19T03:05:38;99489.91;;;12.36;100.00
37848;BME280;23688;33.130;-117.188;2023-04-19T03:08:05;99483.84;;;12.37;100.00
37848;BME280;23688;33.130;-117.188;2023-04-19T03:10:31;99482.50;;;12.49;100.00
37848;BME280;23688;33.130;-117.188;2023-04-19T03:12:57;99491.28;;;12.52;100.00
37848;BME280;23688;33.130;-117.188;2023-04-19T03:15:23;99506.28;;;12.59;100.00
37848;BME280;23688;33.130;-117.188;2023-04-19T03:17:50;99508.63;;;12.52;100.00
37848;BME280;23688;33.130;-117.188;2023-04-19T03:20:16;99518.22;;;12.27;100.00
37848;BME280;23688;33.130;-117.188;2023-04-19T03:22:42;99508.47;;;12.21;100.00
37848;BME280;23688;33.130;-117.188;2023-04-19T03:25:10;99523.97;;;12.18;100.00
37848;BME280;23688;33.130;-117.188;2023-04-19T03:27:39;99527.44;;;12.19;100.00
37848;BME280;23688;33.130;-117.188;2023-04-19T03:30:06;99525.78;;;12.21;100.00
37848;BME280;23688;33.130;-117.188;2023-04-19T03:32:34;99512.13;;;12.27;100.00
37848;BME280;23688;33.130;-117.188;2023-04-19T03:35:00;99527.53;;;12.20;100.00
37848;BME280;23688;33.130;-117.188;2023-04-19T03:37:27;99530.97;;;12.19;100.00
37848;BME280;23688;33.130;-117.188;2023-04-19T03:39:54;99540.97;;;12.33;100.00
37848;BME280;23688;33.130;-117.188;2023-04-19T03:42:23;99543.84;;;12.66;100.00
37848;BME280;23688;33.130;-117.188;2023-04-19T03:44:49;99542.38;;;12.74;100.00
37848;BME280;23688;33.130;-117.188;2023-04-19T03:47:16;99547.19;;;12.89;100.00
37848;BME280;23688;33.130;-117.188;2023-04-19T03:49:42;99539.34;;;12.88;100.00
37848;BME280;23688;33.130;-117.188;2023-04-19T03:52:08;99535.41;;;12.73;100.00
37848;BME280;23688;33.130;-117.188;2023-04-19T03:54:35;99549.63;;;12.57;100.00
37848;BME280;23688;33.130;-117.188;2023-04-19T03:57:01;99542.91;;;12.64;100.00
37848;BME280;23688;33.130;-117.188;2023-04-19T03:59:27;99553.84;;;12.79;100.00
37848;BME280;23688;33.130;-117.188;2023-04-19T04:01:54;99560.69;;;13.03;100.00
37848;BME280;23688;33.130;-117.188;2023-04-19T04:04:20;99553.06;;;13.09;99.37
37848;BME280;23688;33.130;-117.188;2023-04-19T04:06:46;99558.56;;;13.18;98.12
37848;BME280;23688;33.130;-117.188;2023-04-19T04:09:13;99564.94;;;13.26;97.10
37848;BME280;23688;33.130;-117.188;2023-04-19T04:11:39;99555.16;;;13.19;97.26
37848;BME280;23688;33.130;-117.188;2023-04-19T04:14:06;99564.94;;;13.26;96.75
37848;BME280;23688;33.130;-117.188;2023-04-19T04:16:32;99574.88;;;13.38;96.77
37848;BME280;23688;33.130;-117.188;2023-04-19T04:19:00;99565.75;;;13.25;96.46
37848;BME280;23688;33.130;-117.188;2023-04-19T04:21:26;99586.09;;;13.36;96.51
37848;BME280;23688;33.130;-117.188;2023-04-19T04:23:52;99571.28;;;13.35;95.88
37848;BME280;23688;33.130;-117.188;2023-04-19T04:26:19;99580.28;;;13.44;95.80
37848;BME280;23688;33.130;-117.188;2023-04-19T04:28:46;99583.72;;;13.43;95.73
37848;BME280;23688;33.130;-117.188;2023-04-19T04:31:12;99592.53;;;13.47;95.34
37848;BME280;23688;33.130;-117.188;2023-04-19T04:33:39;99593.56;;;13.52;95.03
37848;BME280;23688;33.130;-117.188;2023-04-19T04:36:06;99598.84;;;13.54;95.02
37848;BME280;23688;33.130;-117.188;2023-04-19T04:38:32;99598.00;;;13.55;94.97
37848;BME280;23688;33.130;-117.188;2023-04-19T04:40:59;99596.03;;;13.47;94.98
37848;BME280;23688;33.130;-117.188;2023-04-19T04:43:25;99586.44;;;13.46;95.00
37848;BME280;23688;33.130;-117.188;2023-04-19T04:45:57;99610.19;;;13.56;94.99
37848;BME280;23688;33.130;-117.188;2023-04-19T04:48:25;99599.66;;;13.53;94.92
37848;BME280;23688;33.130;-117.188;2023-04-19T04:50:52;99606.84;;;13.60;94.84
37848;BME280;23688;33.130;-117.188;2023-04-19T04:53:18;99615.66;;;13.63;94.66
37848;BME280;23688;33.130;-117.188;2023-04-19T04:55:45;99613.06;;;13.63;94.57
37848;BME280;23688;33.130;-117.188;2023-04-19T04:58:14;99623.44;;;13.62;94.71
37848;BME280;23688;33.130;-117.188;2023-04-19T05:00:40;99614.63;;;13.58;94.47
37848;BME280;23688;33.130;-117.188;2023-04-19T05:03:07;99616.34;;;13.58;94.24
37848;BME280;23688;33.130;-117.188;2023-04-19T05:05:33;99627.56;;;13.55;94.38
37848;BME280;23688;33.130;-117.188;2023-04-19T05:07:59;99618.84;;;13.55;95.27
37848;BME280;23688;33.130;-117.188;2023-04-19T05:10:26;99609.13;;;13.49;95.54
37848;BME280;23688;33.130;-117.188;2023-04-19T05:12:52;99617.78;;;13.48;95.47
37848;BME280;23688;33.130;-117.188;2023-04-19T05:15:19;99622.09;;;13.47;95.99
37848;BME280;23688;33.130;-117.188;2023-04-19T05:17:48;99630.09;;;13.52;96.16
37848;BME280;23688;33.130;-117.188;2023-04-19T05:20:15;99622.16;;;13.49;95.81
37848;BME280;23688;33.130;-117.188;2023-04-19T05:22:42;99627.25;;;13.44;95.87
37848;BME280;23688;33.130;-117.188;2023-04-19T05:25:09;99624.41;;;13.38;95.96
37848;BME280;23688;33.130;-117.188;2023-04-19T05:27:36;99622.72;;;13.39;95.69
37848;BME280;23688;33.130;-117.188;2023-04-19T05:30:04;99628.69;;;13.36;95.85
37848;BME280;23688;33.130;-117.188;2023-04-19T05:32:33;99632.25;;;13.38;96.51
37848;BME280;23688;33.130;-117.188;2023-04-19T05:35:01;99623.28;;;13.30;96.78
37848;BME280;23688;33.130;-117.188;2023-04-19T05:37:27;99640.84;;;13.36;96.84
37848;BME280;23688;33.130;-117.188;2023-04-19T05:39:55;99636.41;;;13.32;97.33
37848;BME280;23688;33.130;-117.188;2023-04-19T05:42:22;99638.25;;;13.36;97.04
37848;BME280;23688;33.130;-117.188;2023-04-19T05:44:48;99641.06;;;13.42;97.21
37848;BME280;23688;33.130;-117.188;2023-04-19T05:47:14;99630.63;;;13.42;97.38
37848;BME280;23688;33.130;-117.188;2023-04-19T05:49:42;99629.78;;;13.43;97.87
37848;BME280;23688;33.130;-117.188;2023-04-19T05:52:08;99623.63;;;13.41;97.87
37848;BME280;23688;33.130;-117.188;2023-04-19T05:54:34;99626.06;;;13.35;97.79
37848;BME280;23688;33.130;-117.188;2023-04-19T05:57:01;99620.78;;;13.07;98.57
37848;BME280;23688;33.130;-117.188;2023-04-19T05:59:28;99632.28;;;13.14;99.34
37848;BME280;23688;33.130;-117.188;2023-04-19T06:01:55;99604.00;;;12.99;99.38
37848;BME280;23688;33.130;-117.188;2023-04-19T06:04:21;99606.19;;;13.13;98.91
37848;BME280;23688;33.130;-117.188;2023-04-19T06:06:47;99626.69;;;13.27;98.70
37848;BME280;23688;33.130;-117.188;2023-04-19T06:09:14;99614.63;;;13.31;98.36
37848;BME280;23688;33.130;-117.188;2023-04-19T06:11:40;99622.50;;;13.33;98.27
37848;BME280;23688;33.130;-117.188;2023-04-19T06:14:07;99620.88;;;13.36;98.24
37848;BME280;23688;33.130;-117.188;2023-04-19T06:16:34;99616.31;;;13.29;98.21
37848;BME280;23688;33.130;-117.188;2023-04-19T06:19:00;99602.78;;;13.15;97.92
37848;BME280;23688;33.130;-117.188;2023-04-19T06:21:29;99609.13;;;13.23;97.63
37848;BME280;23688;33.130;-117.188;2023-04-19T06:23:56;99611.66;;;13.20;97.71
37848;BME280;23688;33.130;-117.188;2023-04-19T06:26:22;99616.06;;;13.23;97.48
37848;BME280;23688;33.130;-117.188;2023-04-19T06:28:49;99620.44;;;13.24;97.34
37848;BME280;23688;33.130;-117.188;2023-04-19T06:31:15;99608.09;;;13.18;97.27
37848;BME280;23688;33.130;-117.188;2023-04-19T06:33:41;99594.75;;;13.09;97.17
37848;BME280;23688;33.130;-117.188;2023-04-19T06:36:08;99604.28;;;13.07;97.19
37848;BME280;23688;33.130;-117.188;2023-04-19T06:38:35;99611.16;;;13.05;97.38
37848;BME280;23688;33.130;-117.188;2023-04-19T06:41:03;99620.63;;;13.03;97.66
37848;BME280;23688;33.130;-117.188;2023-04-19T06:43:30;99605.81;;;13.02;97.48
37848;BME280;23688;33.130;-117.188;2023-04-19T06:45:57;99613.06;;;13.11;97.39
37848;BME280;23688;33.130;-117.188;2023-04-19T06:48:24;99610.53;;;13.12;96.87
37848;BME280;23688;33.130;-117.188;2023-04-19T06:50:50;99600.81;;;13.08;96.45
37848;BME280;23688;33.130;-117.188;2023-04-19T06:53:17;99613.00;;;13.09;96.43
37848;BME280;23688;33.130;-117.188;2023-04-19T06:55:43;99608.50;;;13.03;96.26
37848;BME280;23688;33.130;-117.188;2023-04-19T06:58:13;99616.53;;;13.10;96.02
37848;BME280;23688;33.130;-117.188;2023-04-19T07:00:39;99624.28;;;13.08;96.18
37848;BME280;23688;33.130;-117.188;2023-04-19T07:03:08;99617.16;;;13.02;96.10
37848;BME280;23688;33.130;-117.188;2023-04-19T07:05:35;99619.63;;;12.99;96.36
37848;BME280;23688;33.130;-117.188;2023-04-19T07:08:01;99612.50;;;12.94;96.75
37848;BME280;23688;33.130;-117.188;2023-04-19T07:10:28;99622.75;;;12.88;97.14
37848;BME280;23688;33.130;-117.188;2023-04-19T07:12:54;99619.75;;;12.77;97.70
37848;BME280;23688;33.130;-117.188;2023-04-19T07:15:20;99622.34;;;12.77;97.95
37848;BME280;23688;33.130;-117.188;2023-04-19T07:17:47;99630.06;;;12.74;98.00
37848;BME280;23688;33.130;-117.188;2023-04-19T07:20:13;99616.03;;;12.70;98.19
37848;BME280;23688;33.130;-117.188;2023-04-19T07:22:39;99621.13;;;12.66;98.20
37848;BME280;23688;33.130;-117.188;2023-04-19T07:25:06;99628.75;;;12.61;98.43
37848;BME280;23688;33.130;-117.188;2023-04-19T07:27:33;99635.53;;;12.56;98.27
37848;BME280;23688;33.130;-117.188;2023-04-19T07:29:59;99608.03;;;12.40;98.39
37848;BME280;23688;33.130;-117.188;2023-04-19T07:32:26;99619.84;;;12.30;98.55
37848;BME280;23688;33.130;-117.188;2023-04-19T07:34:52;99616.78;;;12.18;99.16
37848;BME280;23688;33.130;-117.188;2023-04-19T07:37:18;99586.56;;;11.97;99.54
37848;BME280;23688;33.130;-117.188;2023-04-19T07:39:45;99606.47;;;11.97;99.79
37848;BME280;23688;33.130;-117.188;2023-04-19T07:42:11;99599.22;;;11.88;100.00
37848;BME280;23688;33.130;-117.188;2023-04-19T07:44:38;99595.38;;;11.80;100.00
37848;BME280;23688;33.130;-117.188;2023-04-19T07:47:04;99615.50;;;11.84;100.00
37848;BME280;23688;33.130;-117.188;2023-04-19T07:49:31;99603.97;;;11.77;100.00
37848;BME280;23688;33.130;-117.188;2023-04-19T07:52:00;99612.53;;;11.75;100.00
37848;BME280;23688;33.130;-117.188;2023-04-19T07:54:29;99603.50;;;11.65;100.00
37848;BME280;23688;33.130;-117.188;2023-04-19T07:56:56;99602.72;;;11.68;100.00
37848;BME280;23688;33.130;-117.188;2023-04-19T07:59:23;99603.38;;;11.62;100.00
37848;BME280;23688;33.130;-117.188;2023-04-19T08:02:01;99590.97;;;11.55;100.00
37848;BME280;23688;33.130;-117.188;2023-04-19T08:04:27;99593.63;;;11.56;100.00
37848;BME280;23688;33.130;-117.188;2023-04-19T08:06:54;99599.84;;;11.60;100.00
37848;BME280;23688;33.130;-117.188;2023-04-19T08:09:20;99601.63;;;11.61;100.00
37848;BME280;23688;33.130;-117.188;2023-04-19T08:11:46;99588.31;;;11.53;100.00
37848;BME280;23688;33.130;-117.188;2023-04-19T08:14:13;99591.72;;;11.52;100.00
37848;BME280;23688;33.130;-117.188;2023-04-19T08:16:41;99591.63;;;11.49;100.00
37848;BME280;23688;33.130;-117.188;2023-04-19T08:19:07;99601.19;;;11.50;100.00
37848;BME280;23688;33.130;-117.188;2023-04-19T08:21:33;99589.72;;;11.45;100.00
37848;BME280;23688;33.130;-117.188;2023-04-19T08:24:00;99595.97;;;11.50;100.00
37848;BME280;23688;33.130;-117.188;2023-04-19T08:26:26;99593.38;;;11.50;100.00
37848;BME280;23688;33.130;-117.188;2023-04-19T08:28:52;99590.97;;;11.55;100.00
37848;BME280;23688;33.130;-117.188;2023-04-19T08:31:19;99596.25;;;11.56;100.00
37848;BME280;23688;33.130;-117.188;2023-04-19T08:33:48;99589.44;;;11.60;100.00
37848;BME280;23688;33.130;-117.188;2023-04-19T08:36:14;99587.78;;;11.62;100.00
37848;BME280;23688;33.130;-117.188;2023-04-19T08:38:42;99573.66;;;11.55;100.00
37848;BME280;23688;33.130;-117.188;2023-04-19T08:41:10;99576.44;;;11.60;100.00
37848;BME280;23688;33.130;-117.188;2023-04-19T08:43:42;99579.31;;;11.68;100.00
37848;BME280;23688;33.130;-117.188;2023-04-19T08:46:10;99574.19;;;11.69;100.00
37848;BME280;23688;33.130;-117.188;2023-04-19T08:48:37;99582.09;;;11.72;100.00
37848;BME280;23688;33.130;-117.188;2023-04-19T08:51:05;99579.50;;;11.72;100.00
37848;BME280;23688;33.130;-117.188;2023-04-19T08:53:33;99582.16;;;11.74;100.00
37848;BME280;23688;33.130;-117.188;2023-04-19T08:56:01;99579.63;;;11.75;100.00
37848;BME280;23688;33.130;-117.188;2023-04-19T08:58:28;99582.28;;;11.77;100.00
37848;BME280;23688;33.130;-117.188;2023-04-19T09:00:57;99565.44;;;11.67;100.00
37848;BME280;23688;33.130;-117.188;2023-04-19T09:03:27;99574.25;;;11.71;100.00
37848;BME280;23688;33.130;-117.188;2023-04-19T09:05:53;99579.50;;;11.72;100.00
37848;BME280;23688;33.130;-117.188;2023-04-19T09:08:30;99584.84;;;11.75;100.00
37848;BME280;23688;33.130;-117.188;2023-04-19T09:11:00;99583.22;;;11.79;100.00
37848;BME280;23688;33.130;-117.188;2023-04-19T09:13:27;99579.78;;;11.80;100.00
37848;BME280;23688;33.130;-117.188;2023-04-19T09:15:55;99577.25;;;11.82;100.00
37848;BME280;23688;33.130;-117.188;2023-04-19T09:18:29;99569.28;;;11.77;100.00
37848;BME280;23688;33.130;-117.188;2023-04-19T09:20:55;99574.56;;;11.80;100.00
37848;BME280;23688;33.130;-117.188;2023-04-19T09:23:23;99565.91;;;11.79;100.00
37848;BME280;23688;33.130;-117.188;2023-04-19T09:25:55;99565.84;;;11.78;100.00
37848;BME280;23688;33.130;-117.188;2023-04-19T09:28:23;99564.25;;;11.82;100.00
37848;BME280;23688;33.130;-117.188;2023-04-19T09:30:49;99553.72;;;11.78;100.00
37848;BME280;23688;33.130;-117.188;2023-04-19T09:33:45;99560.13;;;11.87;100.00
37848;BME280;23688;33.130;-117.188;2023-04-19T09:36:31;99558.47;;;11.89;100.00
37848;BME280;23688;33.130;-117.188;2023-04-19T09:38:58;99565.59;;;11.94;100.00
37848;BME280;23688;33.130;-117.188;2023-04-19T09:41:25;99556.91;;;11.94;100.00
37848;BME280;23688;33.130;-117.188;2023-04-19T09:43:52;99561.41;;;11.98;100.00
37848;BME280;23688;33.130;-117.188;2023-04-19T09:46:32;99554.50;;;11.98;100.00
37848;BME280;23688;33.130;-117.188;2023-04-19T09:49:25;99551.97;;;12.00;100.00
37848;BME280;23688;33.130;-117.188;2023-04-19T09:51:53;99549.38;;;12.02;100.00
37848;BME280;23688;33.130;-117.188;2023-04-19T09:54:22;99555.47;;;12.02;100.00
37848;BME280;23688;33.130;-117.188;2023-04-19T09:56:50;99540.50;;;11.95;100.00
37848;BME280;23688;33.130;-117.188;2023-04-19T09:59:17;99545.63;;;11.93;100.00
37848;BME280;23688;33.130;-117.188;2023-04-19T10:01:54;99557.00;;;11.95;100.00
37848;BME280;23688;33.130;-117.188;2023-04-19T10:04:24;99548.31;;;11.95;100.00
37848;BME280;23688;33.130;-117.188;2023-04-19T10:06:52;99547.53;;;11.97;100.00
37848;BME280;23688;33.130;-117.188;2023-04-19T10:09:20;99553.50;;;11.95;100.00
37848;BME280;23688;33.130;-117.188;2023-04-19T10:11:49;99526.00;;;11.79;100.00
37848;BME280;23688;33.130;-117.188;2023-04-19T10:14:21;99545.47;;;11.89;100.00
37848;BME280;23688;33.130;-117.188;2023-04-19T10:16:48;99558.72;;;11.95;100.00
37848;BME280;23688;33.130;-117.188;2023-04-19T10:19:16;99557.13;;;11.77;100.00
37848;BME280;23688;33.130;-117.188;2023-04-19T10:21:43;99558.06;;;11.78;100.00
37848;BME280;23688;33.130;-117.188;2023-04-19T10:24:13;99556.25;;;11.77;100.00
37848;BME280;23688;33.130;-117.188;2023-04-19T10:29:55;99563.13;;;11.75;100.00
37848;BME280;23688;33.130;-117.188;2023-04-19T10:32:22;99546.25;;;11.64;100.00
37848;BME280;23688;33.130;-117.188;2023-04-19T10:34:51;99555.97;;;11.69;100.00
37848;BME280;23688;33.130;-117.188;2023-04-19T10:37:22;99561.25;;;11.71;100.00
37848;BME280;23688;33.130;-117.188;2023-04-19T10:39:51;99563.00;;;11.72;100.00
37848;BME280;23688;33.130;-117.188;2023-04-19T10:42:17;99552.44;;;11.67;100.00
37848;BME280;23688;33.130;-117.188;2023-04-19T10:47:51;99575.59;;;11.84;100.00
37848;BME280;23688;33.130;-117.188;2023-04-19T10:50:17;99569.56;;;11.85;100.00
37848;BME280;23688;33.130;-117.188;2023-04-19T10:52:44;99575.66;;;11.85;100.00
37848;BME280;23688;33.130;-117.188;2023-04-19T10:55:14;99555.56;;;11.81;100.00
37848;BME280;23688;33.130;-117.188;2023-04-19T10:58:05;99569.72;;;11.88;100.00
37848;BME280;23688;33.130;-117.188;2023-04-19T11:00:31;99580.03;;;11.86;100.00
37848;BME280;23688;33.130;-117.188;2023-04-19T11:02:59;99571.94;;;11.78;100.00
37848;BME280;23688;33.130;-117.188;2023-04-19T11:05:26;99563.25;;;11.78;100.00
37848;BME280;23688;33.130;-117.188;2023-04-19T11:07:52;99579.16;;;11.86;100.00
37848;BME280;23688;33.130;-117.188;2023-04-19T11:10:29;99572.16;;;11.85;100.00
37848;BME280;23688;33.130;-117.188;2023-04-19T11:12:57;99570.47;;;11.85;100.00
37848;BME280;23688;33.130;-117.188;2023-04-19T11:15:23;99588.06;;;11.92;100.00
37848;BME280;23688;33.130;-117.188;2023-04-19T11:17:50;99579.34;;;11.90;100.00
37848;BME280;23688;33.130;-117.188;2023-04-19T11:20:21;99586.41;;;11.94;100.00
37848;BME280;23688;33.130;-117.188;2023-04-19T11:22:48;99582.13;;;11.95;100.00
37848;BME280;23688;33.130;-117.188;2023-04-19T11:25:19;99579.47;;;11.93;100.00
37848;BME280;23688;33.130;-117.188;2023-04-19T11:27:48;99589.94;;;11.95;100.00
37848;BME280;23688;33.130;-117.188;2023-04-19T11:30:15;99584.59;;;11.92;100.00
37848;BME280;23688;33.130;-117.188;2023-04-19T11:32:52;99581.75;;;11.86;100.00
37848;BME280;23688;33.130;-117.188;2023-04-19T11:35:23;99571.28;;;11.84;100.00
37848;BME280;23688;33.130;-117.188;2023-04-19T11:37:51;99585.38;;;11.89;100.00
37848;BME280;23688;33.130;-117.188;2023-04-19T11:40:19;99581.88;;;11.89;100.00
37848;BME280;23688;33.130;-117.188;2023-04-19T11:42:45;99584.56;;;11.90;100.00
37848;BME280;23688;33.130;-117.188;2023-04-19T11:45:24;99575.91;;;11.91;100.00
37848;BME280;23688;33.130;-117.188;2023-04-19T11:47:51;99577.53;;;11.88;100.00
37848;BME280;23688;33.130;-117.188;2023-04-19T11:52:59;99570.78;;;11.93;100.00
37848;BME280;23688;33.130;-117.188;2023-04-19T11:55:25;99571.66;;;11.93;100.00
37848;BME280;23688;33.130;-117.188;2023-04-19T11:57:51;99548.56;;;11.80;100.00
37848;BME280;23688;33.130;-117.188;2023-04-19T12:00:26;99552.06;;;11.81;100.00
37848;BME280;23688;33.130;-117.188;2023-04-19T12:02:54;99567.84;;;11.85;100.00
37848;BME280;23688;33.130;-117.188;2023-04-19T12:05:20;99566.78;;;11.80;100.00
37848;BME280;23688;33.130;-117.188;2023-04-19T12:08:03;99571.06;;;11.78;100.00
37848;BME280;23688;33.130;-117.188;2023-04-19T12:10:31;99565.69;;;11.73;100.00
37848;BME280;23688;33.130;-117.188;2023-04-19T12:12:57;99563.72;;;11.68;100.00
37848;BME280;23688;33.130;-117.188;2023-04-19T12:15:45;99566.88;;;11.59;100.00
37848;BME280;23688;33.130;-117.188;2023-04-19T12:18:13;99575.31;;;11.53;100.00
37848;BME280;23688;33.130;-117.188;2023-04-19T12:20:45;99576.13;;;11.52;100.00
37848;BME280;23688;33.130;-117.188;2023-04-19T12:23:13;99565.44;;;11.45;100.00
37848;BME280;23688;33.130;-117.188;2023-04-19T12:25:41;99554.88;;;11.40;100.00
37848;BME280;23688;33.130;-117.188;2023-04-19T12:28:08;99554.63;;;11.34;100.00
37848;BME280;23688;33.130;-117.188;2023-04-19T12:30:35;99571.34;;;11.41;100.00
37848;BME280;23688;33.130;-117.188;2023-04-19T12:33:04;99564.28;;;11.37;100.00
37848;BME280;23688;33.130;-117.188;2023-04-19T12:35:31;99576.31;;;11.34;100.00
37848;BME280;23688;33.130;-117.188;2023-04-19T12:37:59;99578.72;;;11.30;100.00